首页
METAR-TAF:

METAR-TAF

机场 :

甘露機場

坎卢普斯, 不列颠哥伦比亚, 加拿大

纬度: 50-42N, 经度: 120-27W, 海拔: 345米

当前天气观测

该预报发布于58分钟前的20:00 UTC
风速15节,风向东转东南,有时为21节阵风
温度 10°C
湿度 71%
气压 1011 hPa
能見度: 64.4公里
少量云层高于3500英尺
少量云层高于14000英尺

METAR: CYKA 172000Z 11015G21KT 40SM FEW035 FEW140 10/05 A2984 RMK SC1AC1 SLP117

时间: 12:58 (20:58 UTC)

预报

该预报发布于2小时和20分钟前的18:38 UTC
预报有效从17日的 19点(UTC)到 18日的 07点(UTC)
风速10节,风向东转东南
能見度: 10公里
少量云层高于5000英尺
散云层高于11000英尺

TAF: CYKA 171838Z 1719/1807 12010KT P6SM FEW050 SCT110 RMK NXT FCST BY 180100Z

超过4000个机场的气象观测和天气预报(METAR&TAF报告)。

可查询的气象台以黄色和红色小点在地图上表示。

将鼠标移到小点上方,可查看气象台名称。

然后点击查看天气观测和预报。

如需切换地图:点击带黑十字的绿色按钮放大地图;点击带横线的绿色按钮缩小地图;或者点击绿色箭头查看邻近地区的地图。


METAR-TAF: